Time,TemperatureF,DewpointF,PressureIn,WindDirection,WindDirectionDegrees,WindSpeedMPH,WindSpeedGustMPH,Humidity,HourlyPrecipIn,Conditions,Clouds,dailyrainin,SoftwareType,DateUTC
2013-08-05 00:01:00,55.0,51.8,30.06,ENE,66,0.0,1.0,89,0.00,,,0.00,VWS V14.01,2013-08-05 07:01:00,
2013-08-05 00:07:00,55.0,51.8,30.06,ENE,63,0.0,2.0,89,0.00,,,0.00,VWS V14.01,2013-08-05 07:07:00,
2013-08-05 00:12:00,55.0,51.8,30.06,WNW,295,0.0,2.0,89,0.00,,,0.00,VWS V14.01,2013-08-05 07:12:00,
2013-08-05 00:17:00,55.1,51.9,30.06,West,267,1.0,3.0,89,0.00,,,0.00,VWS V14.01,2013-08-05 07:17:00,
2013-08-05 00:22:00,55.2,52.0,30.06,North,357,0.0,3.0,89,0.00,,,0.00,VWS V14.01,2013-08-05 07:22:00,
2013-08-05 00:27:00,55.2,52.0,30.06,NE,39,0.0,3.0,89,0.00,,,0.00,VWS V14.01,2013-08-05 07:27:00,
2013-08-05 00:32:00,55.2,52.0,30.06,NW,320,0.0,4.0,89,0.00,,,0.00,VWS V14.01,2013-08-05 07:32:00,
2013-08-05 00:37:00,55.2,52.0,30.06,NNE,33,0.0,4.0,89,0.00,,,0.00,VWS V14.01,2013-08-05 07:37:00,
2013-08-05 00:41:00,55.2,52.0,30.06,NNE,30,0.0,4.0,89,0.00,,,0.00,VWS V14.01,2013-08-05 07:41:00,
2013-08-05 00:47:00,55.2,52.0,30.06,ESE,106,0.0,4.0,89,0.00,,,0.00,VWS V14.01,2013-08-05 07:47:00,
2013-08-05 00:52:00,55.2,52.3,30.05,NE,37,2.0,4.0,90,0.00,,,0.00,VWS V14.01,2013-08-05 07:52:00,
2013-08-05 00:57:00,55.3,52.4,30.05,NNE,30,2.0,4.0,90,0.00,,,0.00,VWS V14.01,2013-08-05 07:57:00,
2013-08-05 01:02:00,55.2,52.0,30.05,WNW,284,0.0,0.0,89,0.00,,,0.00,VWS V14.01,2013-08-05 08:02:00,
2013-08-05 01:07:00,55.2,52.3,30.05,North,350,0.0,2.0,90,0.00,,,0.00,VWS V14.01,2013-08-05 08:07:00,
2013-08-05 01:12:00,55.1,52.2,30.05,NNE,25,1.0,2.0,90,0.00,,,0.00,VWS V14.01,2013-08-05 08:12:00,
2013-08-05 01:17:00,55.1,52.2,30.05,NE,37,1.0,4.0,90,0.00,,,0.00,VWS V14.01,2013-08-05 08:17:00,
2013-08-05 01:22:00,55.1,52.2,30.05,NNW,339,1.0,4.0,90,0.00,,,0.00,VWS V14.01,2013-08-05 08:22:00,
2013-08-05 01:27:00,55.1,52.2,30.05,NNE,15,2.0,4.0,90,0.00,,,0.00,VWS V14.01,2013-08-05 08:27:00,
2013-08-05 01:32:00,55.2,52.3,30.05,WNW,297,0.0,3.0,90,0.00,,,0.00,VWS V14.01,2013-08-05 08:32:00,
2013-08-05 01:37:00,55.2,52.3,30.05,WNW,285,1.0,3.0,90,0.00,,,0.00,VWS V14.01,2013-08-05 08:37:00,
2013-08-05 01:42:00,55.3,52.4,30.05,NNE,29,1.0,4.0,90,0.00,,,0.00,VWS V14.01,2013-08-05 08:42:00,
2013-08-05 01:47:00,55.3,52.4,30.05,North,351,0.0,5.0,90,0.00,,,0.00,VWS V14.01,2013-08-05 08:47:00,
2013-08-05 01:52:00,55.3,52.4,30.05,ENE,68,1.0,5.0,90,0.00,,,0.00,VWS V14.01,2013-08-05 08:52:00,
2013-08-05 01:58:00,55.3,52.4,30.05,WNW,290,0.0,5.0,90,0.00,,,0.00,VWS V14.01,2013-08-05 08:58:00,
2013-08-05 02:03:00,55.1,52.2,30.05,NNW,347,0.0,3.0,90,0.00,,,0.00,VWS V14.01,2013-08-05 09:03:00,
2013-08-05 02:08:00,55.1,52.2,30.05,NNE,22,1.0,3.0,90,0.00,,,0.00,VWS V14.01,2013-08-05 09:08:00,
2013-08-05 02:13:00,55.1,52.2,30.05,North,1,1.0,4.0,90,0.00,,,0.00,VWS V14.01,2013-08-05 09:13:00,
2013-08-05 02:18:00,55.1,52.2,30.05,East,88,1.0,6.0,90,0.00,,,0.00,VWS V14.01,2013-08-05 09:18:00,
2013-08-05 02:23:00,55.1,52.2,30.05,North,360,1.0,6.0,90,0.00,,,0.00,VWS V14.01,2013-08-05 09:23:00,
2013-08-05 02:28:00,55.2,52.3,30.04,NNW,330,0.0,0.0,90,0.00,,,0.00,VWS V14.01,2013-08-05 09:28:00,
2013-08-05 02:33:00,55.1,52.2,30.05,NNE,19,0.0,2.0,90,0.00,,,0.00,VWS V14.01,2013-08-05 09:33:00,
2013-08-05 02:38:00,55.0,52.1,30.04,WSW,248,0.0,2.0,90,0.00,,,0.00,VWS V14.01,2013-08-05 09:38:00,
2013-08-05 02:43:00,55.0,52.4,30.05,WNW,293,0.0,2.0,91,0.00,,,0.00,VWS V14.01,2013-08-05 09:43:00,
2013-08-05 02:48:00,55.0,52.4,30.04,NW,324,0.0,2.0,91,0.00,,,0.00,VWS V14.01,2013-08-05 09:48:00,
2013-08-05 02:53:00,55.1,52.5,30.04,WNW,293,0.0,3.0,91,0.00,,,0.00,VWS V14.01,2013-08-05 09:53:00,
2013-08-05 02:58:00,55.3,52.7,30.04,WNW,288,2.0,3.0,91,0.00,,,0.00,VWS V14.01,2013-08-05 09:58:00,
2013-08-05 03:04:00,55.4,52.5,30.04,East,82,1.0,3.0,90,0.00,,,0.00,VWS V14.01,2013-08-05 10:04:00,
2013-08-05 03:08:00,55.4,52.5,30.04,NNW,337,1.0,3.0,90,0.00,,,0.00,VWS V14.01,2013-08-05 10:08:00,
2013-08-05 03:14:00,55.4,52.5,30.04,North,360,0.0,3.0,90,0.00,,,0.00,VWS V14.01,2013-08-05 10:14:00,
2013-08-05 03:19:00,55.4,52.5,30.04,NW,309,1.0,3.0,90,0.00,,,0.00,VWS V14.01,2013-08-05 10:19:00,
2013-08-05 03:24:00,55.3,52.4,30.05,North,350,0.0,3.0,90,0.00,,,0.00,VWS V14.01,2013-08-05 10:24:00,
2013-08-05 03:29:00,55.3,52.4,30.04,NNW,338,1.0,1.0,90,0.00,,,0.00,VWS V14.01,2013-08-05 10:29:00,
2013-08-05 03:34:00,55.2,52.3,30.05,WNW,289,1.0,5.0,90,0.00,,,0.00,VWS V14.01,2013-08-05 10:34:00,
2013-08-05 03:39:00,55.2,52.3,30.05,West,264,1.0,5.0,90,0.00,,,0.00,VWS V14.01,2013-08-05 10:39:00,
2013-08-05 03:44:00,55.1,52.2,30.05,NW,321,1.0,5.0,90,0.00,,,0.00,VWS V14.01,2013-08-05 10:44:00,
2013-08-05 03:49:00,55.1,52.2,30.05,NNE,18,0.0,5.0,90,0.00,,,0.00,VWS V14.01,2013-08-05 10:49:00,
2013-08-05 03:55:00,55.2,52.3,30.05,WSW,256,3.0,5.0,90,0.00,,,0.00,VWS V14.01,2013-08-05 10:55:00,
2013-08-05 04:00:00,55.3,52.4,30.04,SW,219,0.0,3.0,90,0.00,,,0.00,VWS V14.01,2013-08-05 11:00:00,
2013-08-05 04:05:00,55.3,52.4,30.04,NW,318,2.0,5.0,90,0.00,,,0.00,VWS V14.01,2013-08-05 11:05:00,
2013-08-05 04:10:00,55.4,52.5,30.04,NNW,334,0.0,5.0,90,0.00,,,0.00,VWS V14.01,2013-08-05 11:10:00,
2013-08-05 04:15:00,55.5,52.6,30.04,North,349,1.0,5.0,90,0.00,,,0.00,VWS V14.01,2013-08-05 11:15:00,
2013-08-05 04:20:00,55.5,52.3,30.04,WNW,287,1.0,5.0,89,0.00,,,0.00,VWS V14.01,2013-08-05 11:20:00,
2013-08-05 04:25:00,55.5,52.3,30.04,NNE,31,1.0,5.0,89,0.00,,,0.00,VWS V14.01,2013-08-05 11:25:00,
2013-08-05 04:29:00,55.5,52.3,30.04,NW,319,0.0,2.0,89,0.00,,,0.00,VWS V14.01,2013-08-05 11:29:00,
2013-08-05 04:35:00,55.5,52.3,30.04,SSW,193,0.0,5.0,89,0.00,,,0.00,VWS V14.01,2013-08-05 11:35:00,
2013-08-05 04:40:00,55.5,52.3,30.04,ESE,103,0.0,5.0,89,0.00,,,0.00,VWS V14.01,2013-08-05 11:40:00,
2013-08-05 04:45:00,55.6,52.4,30.04,North,4,1.0,5.0,89,0.00,,,0.00,VWS V14.01,2013-08-05 11:45:00,
2013-08-05 04:50:00,55.7,52.5,30.04,NNW,338,2.0,5.0,89,0.00,,,0.00,VWS V14.01,2013-08-05 11:50:00,
2013-08-05 04:55:00,55.7,52.5,30.04,WSW,239,0.0,5.0,89,0.00,,,0.00,VWS V14.01,2013-08-05 11:55:00,
2013-08-05 05:00:00,55.8,52.6,30.05,WNW,293,0.0,4.0,89,0.00,,,0.00,VWS V14.01,2013-08-05 12:00:00,
2013-08-05 05:05:00,55.9,52.7,30.05,East,86,1.0,4.0,89,0.00,,,0.00,VWS V14.01,2013-08-05 12:05:00,
2013-08-05 05:10:00,55.8,52.3,30.05,North,6,1.0,4.0,88,0.00,,,0.00,VWS V14.01,2013-08-05 12:10:00,
2013-08-05 05:16:00,55.8,52.6,30.05,West,262,1.0,4.0,89,0.00,,,0.00,VWS V14.01,2013-08-05 12:16:00,
2013-08-05 05:21:00,55.7,52.5,30.05,NNW,345,1.0,4.0,89,0.00,,,0.00,VWS V14.01,2013-08-05 12:21:00,
2013-08-05 05:26:00,55.6,52.4,30.05,NNE,27,1.0,5.0,89,0.00,,,0.00,VWS V14.01,2013-08-05 12:26:00,
2013-08-05 05:31:00,55.6,52.4,30.05,NNW,345,0.0,4.0,89,0.00,,,0.00,VWS V14.01,2013-08-05 12:31:00,
2013-08-05 05:36:00,55.5,52.3,30.05,NNW,328,0.0,4.0,89,0.00,,,0.00,VWS V14.01,2013-08-05 12:36:00,
2013-08-05 05:42:00,55.4,52.5,30.05,NE,43,4.0,4.0,90,0.00,,,0.00,VWS V14.01,2013-08-05 12:42:00,
2013-08-05 05:46:00,55.4,52.5,30.05,NE,53,1.0,4.0,90,0.00,,,0.00,VWS V14.01,2013-08-05 12:46:00,
2013-08-05 05:52:00,55.4,52.5,30.05,ENE,62,3.0,4.0,90,0.00,,,0.00,VWS V14.01,2013-08-05 12:52:00,
2013-08-05 05:57:00,55.4,52.2,30.06,NNW,336,1.0,5.0,89,0.00,,,0.00,VWS V14.01,2013-08-05 12:57:00,
2013-08-05 06:02:00,55.2,52.0,30.06,North,3,1.0,4.0,89,0.00,,,0.00,VWS V14.01,2013-08-05 13:02:00,
2013-08-05 06:07:00,55.1,51.9,30.06,NNE,20,5.0,5.0,89,0.00,,,0.00,VWS V14.01,2013-08-05 13:07:00,
2013-08-05 06:12:00,55.1,51.9,30.06,NE,35,1.0,6.0,89,0.00,,,0.00,VWS V14.01,2013-08-05 13:12:00,
2013-08-05 06:17:00,55.1,51.9,30.06,North,4,0.0,6.0,89,0.00,,,0.00,VWS V14.01,2013-08-05 13:17:00,
2013-08-05 06:22:00,55.0,51.8,30.06,NNW,335,1.0,6.0,89,0.00,,,0.00,VWS V14.01,2013-08-05 13:22:00,
2013-08-05 06:27:00,55.0,51.8,30.06,North,8,3.0,6.0,89,0.00,,,0.00,VWS V14.01,2013-08-05 13:27:00,
2013-08-05 06:32:00,55.0,51.8,30.07,ENE,69,0.0,3.0,89,0.00,,,0.00,VWS V14.01,2013-08-05 13:32:00,
2013-08-05 06:37:00,55.0,51.8,30.07,NNE,32,1.0,4.0,89,0.00,,,0.00,VWS V14.01,2013-08-05 13:37:00,
2013-08-05 06:42:00,55.0,51.8,30.07,NE,39,2.0,4.0,89,0.00,,,0.00,VWS V14.01,2013-08-05 13:42:00,
2013-08-05 06:47:00,55.0,51.8,30.07,NNW,332,1.0,4.0,89,0.00,,,0.00,VWS V14.01,2013-08-05 13:47:00,
2013-08-05 06:52:00,55.0,51.8,30.07,NNW,341,1.0,4.0,89,0.00,,,0.00,VWS V14.01,2013-08-05 13:52:00,
2013-08-05 06:57:00,55.0,51.8,30.07,NW,325,0.0,4.0,89,0.00,,,0.00,VWS V14.01,2013-08-05 13:57:00,
2013-08-05 07:02:00,55.0,51.8,30.07,NE,39,1.0,4.0,89,0.00,,,0.00,VWS V14.01,2013-08-05 14:02:00,
2013-08-05 07:07:00,55.1,51.9,30.07,NNW,340,0.0,4.0,89,0.00,,,0.00,VWS V14.01,2013-08-05 14:07:00,
2013-08-05 07:12:00,55.2,52.0,30.07,WNW,283,1.0,4.0,89,0.00,,,0.00,VWS V14.01,2013-08-05 14:12:00,
2013-08-05 07:17:00,55.4,52.2,30.07,North,354,1.0,5.0,89,0.00,,,0.00,VWS V14.01,2013-08-05 14:17:00,
2013-08-05 07:22:00,55.5,52.0,30.07,North,5,2.0,5.0,88,0.00,,,0.00,VWS V14.01,2013-08-05 14:22:00,
2013-08-05 07:28:00,55.7,52.2,30.08,WNW,287,0.0,5.0,88,0.00,,,0.00,VWS V14.01,2013-08-05 14:28:00,
2013-08-05 07:32:00,55.8,52.3,30.08,WNW,284,1.0,4.0,88,0.00,,,0.00,VWS V14.01,2013-08-05 14:32:00,
2013-08-05 07:38:00,56.0,52.5,30.07,NE,51,1.0,4.0,88,0.00,,,0.00,VWS V14.01,2013-08-05 14:38:00,
2013-08-05 07:43:00,56.1,52.3,30.08,NW,322,0.0,4.0,87,0.00,,,0.00,VWS V14.01,2013-08-05 14:43:00,
2013-08-05 07:47:00,56.3,52.5,30.08,North,360,0.0,4.0,87,0.00,,,0.00,VWS V14.01,2013-08-05 14:47:00,
2013-08-05 07:52:00,56.5,52.4,30.08,SW,222,2.0,4.0,86,0.00,,,0.00,VWS V14.01,2013-08-05 14:52:00,
2013-08-05 07:58:00,56.6,52.5,30.08,WNW,284,3.0,4.0,86,0.00,,,0.00,VWS V14.01,2013-08-05 14:58:00,
2013-08-05 08:03:00,56.7,52.2,30.08,ENE,60,1.0,4.0,85,0.00,,,0.00,VWS V14.01,2013-08-05 15:03:00,
2013-08-05 08:08:00,56.8,52.3,30.08,NNW,330,1.0,5.0,85,0.00,,,0.00,VWS V14.01,2013-08-05 15:08:00,
2013-08-05 08:13:00,57.0,52.5,30.08,WNW,300,1.0,5.0,85,0.00,,,0.00,VWS V14.01,2013-08-05 15:13:00,
2013-08-05 08:18:00,57.3,52.5,30.08,WNW,291,0.0,5.0,84,0.00,,,0.00,VWS V14.01,2013-08-05 15:18:00,
2013-08-05 08:23:00,57.7,52.9,30.08,West,259,0.0,5.0,84,0.00,,,0.00,VWS V14.01,2013-08-05 15:23:00,
2013-08-05 08:29:00,58.1,53.0,30.07,WNW,297,1.0,1.0,83,0.00,,,0.00,VWS V14.01,2013-08-05 15:29:00,
2013-08-05 08:34:00,58.8,53.3,30.08,NNW,340,0.0,4.0,82,0.00,,,0.00,VWS V14.01,2013-08-05 15:34:00,
2013-08-05 08:39:00,59.1,53.3,30.08,NE,50,4.0,6.0,81,0.00,,,0.00,VWS V14.01,2013-08-05 15:39:00,
2013-08-05 08:44:00,59.2,53.4,30.08,SSW,207,0.0,6.0,81,0.00,,,0.00,VWS V14.01,2013-08-05 15:44:00,
2013-08-05 08:49:00,59.5,53.3,30.08,NW,322,1.0,6.0,80,0.00,,,0.00,VWS V14.01,2013-08-05 15:49:00,
2013-08-05 08:54:00,59.7,53.5,30.08,SSW,210,2.0,6.0,80,0.00,,,0.00,VWS V14.01,2013-08-05 15:54:00,
2013-08-05 08:59:00,60.1,53.9,30.08,NW,316,1.0,2.0,80,0.00,,,0.00,VWS V14.01,2013-08-05 15:59:00,
2013-08-05 09:04:00,60.5,54.0,30.08,West,273,1.0,4.0,79,0.00,,,0.00,VWS V14.01,2013-08-05 16:04:00,
2013-08-05 09:09:00,60.8,53.9,30.08,North,351,1.0,6.0,78,0.00,,,0.00,VWS V14.01,2013-08-05 16:09:00,
2013-08-05 09:14:00,61.4,54.5,30.08,North,351,1.0,6.0,78,0.00,,,0.00,VWS V14.01,2013-08-05 16:14:00,
2013-08-05 09:19:00,62.0,54.4,30.08,North,5,1.0,6.0,76,0.00,,,0.00,VWS V14.01,2013-08-05 16:19:00,
2013-08-05 09:25:00,62.2,54.5,30.08,WNW,285,3.0,6.0,76,0.00,,,0.00,VWS V14.01,2013-08-05 16:25:00,
2013-08-05 09:29:00,62.6,55.3,30.09,North,1,2.0,3.0,77,0.00,,,0.00,VWS V14.01,2013-08-05 16:29:00,
2013-08-05 09:35:00,62.5,54.8,30.09,North,352,2.0,11.0,76,0.00,,,0.00,VWS V14.01,2013-08-05 16:35:00,
2013-08-05 09:39:00,62.5,54.8,30.09,ENE,71,2.0,11.0,76,0.00,,,0.00,VWS V14.01,2013-08-05 16:39:00,
2013-08-05 09:45:00,62.6,54.2,30.08,NE,34,2.0,11.0,74,0.00,,,0.00,VWS V14.01,2013-08-05 16:45:00,
2013-08-05 09:50:00,62.5,54.5,30.08,WNW,298,1.0,11.0,75,0.00,,,0.00,VWS V14.01,2013-08-05 16:50:00,
2013-08-05 09:55:00,62.8,54.8,30.08,NNW,345,1.0,11.0,75,0.00,,,0.00,VWS V14.01,2013-08-05 16:55:00,
2013-08-05 10:00:00,63.4,55.3,30.08,WNW,293,2.0,4.0,75,0.00,,,0.00,VWS V14.01,2013-08-05 17:00:00,
2013-08-05 10:05:00,63.6,55.2,30.09,NW,311,3.0,4.0,74,0.00,,,0.00,VWS V14.01,2013-08-05 17:05:00,
2013-08-05 10:10:00,64.0,55.2,30.09,North,356,1.0,6.0,73,0.00,,,0.00,VWS V14.01,2013-08-05 17:10:00,
2013-08-05 10:15:00,64.0,55.2,30.09,NNW,337,1.0,7.0,73,0.00,,,0.00,VWS V14.01,2013-08-05 17:15:00,
2013-08-05 10:20:00,64.2,55.0,30.09,NNE,13,4.0,7.0,72,0.00,,,0.00,VWS V14.01,2013-08-05 17:20:00,
2013-08-05 10:25:00,64.5,54.9,30.09,NNW,330,1.0,7.0,71,0.00,,,0.00,VWS V14.01,2013-08-05 17:25:00,
2013-08-05 10:30:00,64.5,55.3,30.08,West,270,1.0,5.0,72,0.00,,,0.00,VWS V14.01,2013-08-05 17:30:00,
2013-08-05 10:35:00,65.0,55.4,30.08,SE,124,0.0,6.0,71,0.00,,,0.00,VWS V14.01,2013-08-05 17:35:00,
2013-08-05 10:40:00,65.8,55.8,30.08,ESE,120,1.0,6.0,70,0.00,,,0.00,VWS V14.01,2013-08-05 17:40:00,
2013-08-05 10:46:00,66.2,56.1,30.08,West,267,2.0,6.0,70,0.00,,,0.00,VWS V14.01,2013-08-05 17:46:00,
2013-08-05 10:51:00,67.0,56.1,30.08,NE,37,2.0,6.0,68,0.00,,,0.00,VWS V14.01,2013-08-05 17:51:00,
2013-08-05 10:56:00,67.4,56.1,30.08,NNW,345,1.0,6.0,67,0.00,,,0.00,VWS V14.01,2013-08-05 17:56:00,
2013-08-05 11:00:00,67.7,56.4,30.08,North,1,3.0,4.0,67,0.00,,,0.00,VWS V14.01,2013-08-05 18:00:00,
2013-08-05 11:06:00,68.1,55.9,30.08,North,353,2.0,7.0,65,0.00,,,0.00,VWS V14.01,2013-08-05 18:06:00,
2013-08-05 11:11:00,68.0,56.2,30.08,NE,46,1.0,7.0,66,0.00,,,0.00,VWS V14.01,2013-08-05 18:11:00,
2013-08-05 11:16:00,68.6,56.8,30.08,North,359,1.0,7.0,66,0.00,,,0.00,VWS V14.01,2013-08-05 18:16:00,
2013-08-05 11:21:00,69.2,56.5,30.08,WNW,299,1.0,7.0,64,0.00,,,0.00,VWS V14.01,2013-08-05 18:21:00,
2013-08-05 11:26:00,69.4,56.7,30.07,NW,313,2.0,7.0,64,0.00,,,0.00,VWS V14.01,2013-08-05 18:26:00,
2013-08-05 11:31:00,69.9,56.3,30.07,North,5,2.0,3.0,62,0.00,,,0.00,VWS V14.01,2013-08-05 18:31:00,
2013-08-05 11:37:00,70.1,56.9,30.07,NNE,23,1.0,6.0,63,0.00,,,0.00,VWS V14.01,2013-08-05 18:37:00,
2013-08-05 11:42:00,70.2,56.6,30.07,WNW,298,1.0,6.0,62,0.00,,,0.00,VWS V14.01,2013-08-05 18:42:00,
2013-08-05 11:47:00,70.8,56.7,30.07,NNE,23,2.0,6.0,61,0.00,,,0.00,VWS V14.01,2013-08-05 18:47:00,
2013-08-05 11:52:00,71.5,56.9,30.07,NNE,22,3.0,6.0,60,0.00,,,0.00,VWS V14.01,2013-08-05 18:52:00,
2013-08-05 11:57:00,71.9,56.8,30.07,East,91,2.0,6.0,59,0.00,,,0.00,VWS V14.01,2013-08-05 18:57:00,
2013-08-05 12:02:00,72.4,57.3,30.06,NW,321,2.0,4.0,59,0.00,,,0.00,VWS V14.01,2013-08-05 19:02:00,
2013-08-05 12:07:00,72.5,56.4,30.06,NW,314,3.0,11.0,57,0.00,,,0.00,VWS V14.01,2013-08-05 19:07:00,
2013-08-05 12:13:00,73.1,58.4,30.06,NNE,12,1.0,11.0,60,0.00,,,0.00,VWS V14.01,2013-08-05 19:13:00,
2013-08-05 12:18:00,73.8,57.1,30.06,ENE,60,2.0,11.0,56,0.00,,,0.00,VWS V14.01,2013-08-05 19:18:00,
2013-08-05 12:23:00,73.8,57.6,30.06,NNE,25,2.0,11.0,57,0.00,,,0.00,VWS V14.01,2013-08-05 19:23:00,
2013-08-05 12:29:00,74.4,57.7,30.06,SSW,203,1.0,3.0,56,0.00,,,0.00,VWS V14.01,2013-08-05 19:29:00,
2013-08-05 12:34:00,75.0,57.2,30.06,NNW,341,3.0,7.0,54,0.00,,,0.00,VWS V14.01,2013-08-05 19:34:00,
2013-08-05 12:39:00,75.1,57.3,30.06,WNW,294,2.0,7.0,54,0.00,,,0.00,VWS V14.01,2013-08-05 19:39:00,
2013-08-05 12:44:00,75.6,57.3,30.06,NNW,334,1.0,7.0,53,0.00,,,0.00,VWS V14.01,2013-08-05 19:44:00,
2013-08-05 12:49:00,75.8,57.5,30.05,North,11,3.0,7.0,53,0.00,,,0.00,VWS V14.01,2013-08-05 19:49:00,
2013-08-05 12:54:00,76.0,57.1,30.05,NE,56,1.0,7.0,52,0.00,,,0.00,VWS V14.01,2013-08-05 19:54:00,
2013-08-05 12:59:00,76.6,56.6,30.05,NNE,18,2.0,6.0,50,0.00,,,0.00,VWS V14.01,2013-08-05 19:59:00,
2013-08-05 13:04:00,76.8,57.3,30.05,NNE,22,4.0,6.0,51,0.00,,,0.00,VWS V14.01,2013-08-05 20:04:00,
2013-08-05 13:09:00,77.2,57.7,30.05,NW,316,0.0,7.0,51,0.00,,,0.00,VWS V14.01,2013-08-05 20:09:00,
2013-08-05 13:14:00,77.5,56.9,30.05,NW,323,4.0,7.0,49,0.00,,,0.00,VWS V14.01,2013-08-05 20:14:00,
2013-08-05 13:19:00,77.4,57.3,30.04,WNW,295,2.0,7.0,50,0.00,,,0.00,VWS V14.01,2013-08-05 20:19:00,
2013-08-05 13:24:00,78.0,57.3,30.04,NNW,336,1.0,7.0,49,0.00,,,0.00,VWS V14.01,2013-08-05 20:24:00,
2013-08-05 13:29:00,78.3,58.2,30.04,SW,232,1.0,2.0,50,0.00,,,0.00,VWS V14.01,2013-08-05 20:29:00,
2013-08-05 13:34:00,78.8,58.0,30.04,North,353,2.0,7.0,49,0.00,,,0.00,VWS V14.01,2013-08-05 20:34:00,
2013-08-05 13:39:00,79.4,58.6,30.04,NNW,332,1.0,7.0,49,0.00,,,0.00,VWS V14.01,2013-08-05 20:39:00,
2013-08-05 13:45:00,79.8,57.2,30.04,NNE,20,1.0,7.0,46,0.00,,,0.00,VWS V14.01,2013-08-05 20:45:00,
2013-08-05 13:50:00,79.8,57.8,30.03,North,6,2.0,7.0,47,0.00,,,0.00,VWS V14.01,2013-08-05 20:50:00,
2013-08-05 13:55:00,80.2,57.6,30.03,NE,54,1.0,7.0,46,0.00,,,0.00,VWS V14.01,2013-08-05 20:55:00,
2013-08-05 14:00:00,80.4,56.5,30.03,NW,326,4.0,5.0,44,0.00,,,0.00,VWS V14.01,2013-08-05 21:00:00,
2013-08-05 14:05:00,80.2,56.3,30.03,NNE,26,3.0,9.0,44,0.00,,,0.00,VWS V14.01,2013-08-05 21:05:00,
2013-08-05 14:10:00,80.2,56.3,30.03,SW,232,2.0,9.0,44,0.00,,,0.00,VWS V14.01,2013-08-05 21:10:00,
2013-08-05 14:15:00,80.5,57.2,30.03,NNE,20,6.0,9.0,45,0.00,,,0.00,VWS V14.01,2013-08-05 21:15:00,
2013-08-05 14:20:00,80.6,55.4,30.03,SW,221,2.0,9.0,42,0.00,,,0.00,VWS V14.01,2013-08-05 21:20:00,
2013-08-05 14:25:00,80.9,56.3,30.03,North,356,2.0,9.0,43,0.00,,,0.00,VWS V14.01,2013-08-05 21:25:00,
2013-08-05 14:30:00,81.5,54.9,30.02,NNW,340,2.0,5.0,40,0.00,,,0.00,VWS V14.01,2013-08-05 21:30:00,
2013-08-05 14:36:00,82.0,54.6,30.02,NNW,330,1.0,5.0,39,0.00,,,0.00,VWS V14.01,2013-08-05 21:36:00,
2013-08-05 14:41:00,82.4,55.0,30.02,NNW,328,4.0,6.0,39,0.00,,,0.00,VWS V14.01,2013-08-05 21:41:00,
2013-08-05 14:46:00,82.3,54.9,30.02,WNW,295,1.0,6.0,39,0.00,,,0.00,VWS V14.01,2013-08-05 21:46:00,
2013-08-05 14:51:00,82.7,54.5,30.02,NNE,33,3.0,6.0,38,0.00,,,0.00,VWS V14.01,2013-08-05 21:51:00,
2013-08-05 14:56:00,82.6,55.2,30.02,NNE,20,1.0,6.0,39,0.00,,,0.00,VWS V14.01,2013-08-05 21:56:00,
2013-08-05 15:01:00,83.0,54.1,30.01,NE,34,6.0,8.0,37,0.00,,,0.00,VWS V14.01,2013-08-05 22:01:00,
2013-08-05 15:06:00,83.2,54.2,30.01,ENE,63,2.0,8.0,37,0.00,,,0.00,VWS V14.01,2013-08-05 22:06:00,
2013-08-05 15:11:00,83.6,54.6,30.01,NNW,338,1.0,8.0,37,0.00,,,0.00,VWS V14.01,2013-08-05 22:11:00,
2013-08-05 15:16:00,83.3,53.6,30.01,West,277,4.0,8.0,36,0.00,,,0.00,VWS V14.01,2013-08-05 22:16:00,
2013-08-05 15:21:00,83.4,54.4,30.01,NNW,341,3.0,8.0,37,0.00,,,0.00,VWS V14.01,2013-08-05 22:21:00,
2013-08-05 15:26:00,83.2,53.5,30.01,WNW,294,1.0,8.0,36,0.00,,,0.00,VWS V14.01,2013-08-05 22:26:00,
2013-08-05 15:31:00,83.1,52.6,30.01,West,274,4.0,5.0,35,0.00,,,0.00,VWS V14.01,2013-08-05 22:31:00,
2013-08-05 15:36:00,82.9,53.2,30.00,NNW,340,2.0,6.0,36,0.00,,,0.00,VWS V14.01,2013-08-05 22:36:00,
2013-08-05 15:42:00,82.7,53.1,30.01,West,276,1.0,8.0,36,0.00,,,0.00,VWS V14.01,2013-08-05 22:42:00,
2013-08-05 15:47:00,83.0,54.1,30.00,WNW,298,1.0,8.0,37,0.00,,,0.00,VWS V14.01,2013-08-05 22:47:00,
2013-08-05 15:52:00,83.1,53.4,30.00,WNW,283,2.0,8.0,36,0.00,,,0.00,VWS V14.01,2013-08-05 22:52:00,
2013-08-05 15:57:00,83.0,53.3,30.00,North,354,4.0,8.0,36,0.00,,,0.00,VWS V14.01,2013-08-05 22:57:00,
2013-08-05 16:02:00,82.3,52.7,30.00,NE,40,3.0,9.0,36,0.00,,,0.00,VWS V14.01,2013-08-05 23:02:00,
2013-08-05 16:07:00,82.4,53.5,29.99,WNW,297,2.0,9.0,37,0.00,,,0.00,VWS V14.01,2013-08-05 23:07:00,
2013-08-05 16:12:00,82.2,52.6,29.99,NNW,342,2.0,9.0,36,0.00,,,0.00,VWS V14.01,2013-08-05 23:12:00,
2013-08-05 16:17:00,82.3,52.7,29.99,NNE,13,5.0,9.0,36,0.00,,,0.00,VWS V14.01,2013-08-05 23:17:00,
2013-08-05 16:22:00,82.2,52.6,29.99,NNE,25,1.0,9.0,36,0.00,,,0.00,VWS V14.01,2013-08-05 23:22:00,
2013-08-05 16:27:00,82.4,52.8,29.99,North,9,2.0,9.0,36,0.00,,,0.00,VWS V14.01,2013-08-05 23:27:00,
2013-08-05 16:32:00,82.2,52.6,29.99,NW,320,4.0,7.0,36,0.00,,,0.00,VWS V14.01,2013-08-05 23:32:00,
2013-08-05 16:37:00,82.3,52.7,29.99,West,268,1.0,7.0,36,0.00,,,0.00,VWS V14.01,2013-08-05 23:37:00,
2013-08-05 16:42:00,82.3,53.5,29.99,WSW,240,1.0,7.0,37,0.00,,,0.00,VWS V14.01,2013-08-05 23:42:00,
2013-08-05 16:47:00,82.0,53.2,29.99,NW,322,1.0,7.0,37,0.00,,,0.00,VWS V14.01,2013-08-05 23:47:00,
2013-08-05 16:52:00,81.9,53.1,29.99,WNW,287,1.0,7.0,37,0.00,,,0.00,VWS V14.01,2013-08-05 23:52:00,
2013-08-05 16:57:00,81.4,52.7,29.99,SSE,159,1.0,7.0,37,0.00,,,0.00,VWS V14.01,2013-08-05 23:57:00,
2013-08-05 17:02:00,80.9,52.2,29.99,NW,305,5.0,6.0,37,0.00,,,0.00,VWS V14.01,2013-08-06 00:02:00,
2013-08-05 17:07:00,80.5,52.6,29.99,NNE,23,2.0,6.0,38,0.00,,,0.00,VWS V14.01,2013-08-06 00:07:00,
2013-08-05 17:12:00,80.5,52.6,29.99,North,9,4.0,6.0,38,0.00,,,0.00,VWS V14.01,2013-08-06 00:12:00,
2013-08-05 17:17:00,80.2,52.3,29.98,WSW,255,2.0,6.0,38,0.00,,,0.00,VWS V14.01,2013-08-06 00:17:00,
2013-08-05 17:22:00,80.3,51.7,29.98,West,281,6.0,6.0,37,0.00,,,0.00,VWS V14.01,2013-08-06 00:22:00,
2013-08-05 17:27:00,80.3,51.7,29.98,NNE,13,2.0,6.0,37,0.00,,,0.00,VWS V14.01,2013-08-06 00:27:00,
2013-08-05 17:32:00,80.1,51.5,29.98,NE,43,3.0,7.0,37,0.00,,,0.00,VWS V14.01,2013-08-06 00:32:00,
2013-08-05 17:37:00,79.7,51.9,29.98,West,260,0.0,8.0,38,0.00,,,0.00,VWS V14.01,2013-08-06 00:37:00,
2013-08-05 17:43:00,79.5,51.7,29.98,West,270,2.0,8.0,38,0.00,,,0.00,VWS V14.01,2013-08-06 00:43:00,
2013-08-05 17:48:00,79.2,51.4,29.98,ENE,65,2.0,9.0,38,0.00,,,0.00,VWS V14.01,2013-08-06 00:48:00,
2013-08-05 17:53:00,79.0,52.0,29.98,NW,312,2.0,9.0,39,0.00,,,0.00,VWS V14.01,2013-08-06 00:53:00,
2013-08-05 17:58:00,79.2,50.7,29.98,North,9,1.0,9.0,37,0.00,,,0.00,VWS V14.01,2013-08-06 00:58:00,
2013-08-05 18:03:00,79.2,52.1,29.98,WNW,292,0.0,5.0,39,0.00,,,0.00,VWS V14.01,2013-08-06 01:03:00,
2013-08-05 18:08:00,78.8,51.1,29.98,North,1,2.0,7.0,38,0.00,,,0.00,VWS V14.01,2013-08-06 01:08:00,
2013-08-05 18:13:00,79.0,51.2,29.98,NNW,337,4.0,7.0,38,0.00,,,0.00,VWS V14.01,2013-08-06 01:13:00,
2013-08-05 18:18:00,78.4,51.4,29.98,North,359,1.0,7.0,39,0.00,,,0.00,VWS V14.01,2013-08-06 01:18:00,
2013-08-05 18:23:00,78.5,50.8,29.98,North,360,3.0,7.0,38,0.00,,,0.00,VWS V14.01,2013-08-06 01:23:00,
2013-08-05 18:28:00,78.3,50.6,29.98,NW,307,1.0,2.0,38,0.00,,,0.00,VWS V14.01,2013-08-06 01:28:00,
2013-08-05 18:34:00,78.3,50.6,29.98,NW,324,0.0,5.0,38,0.00,,,0.00,VWS V14.01,2013-08-06 01:34:00,
2013-08-05 18:39:00,78.1,51.2,29.98,WNW,298,2.0,5.0,39,0.00,,,0.00,VWS V14.01,2013-08-06 01:39:00,
2013-08-05 18:44:00,77.4,50.5,29.98,NNW,337,2.0,6.0,39,0.00,,,0.00,VWS V14.01,2013-08-06 01:44:00,
2013-08-05 18:49:00,76.4,49.6,29.98,West,270,6.0,6.0,39,0.00,,,0.00,VWS V14.01,2013-08-06 01:49:00,
2013-08-05 18:54:00,75.9,49.2,29.98,NW,321,1.0,6.0,39,0.00,,,0.00,VWS V14.01,2013-08-06 01:54:00,
2013-08-05 18:59:00,75.8,49.8,29.98,NNE,12,1.0,5.0,40,0.00,,,0.00,VWS V14.01,2013-08-06 01:59:00,
2013-08-05 19:04:00,75.4,48.8,29.98,NNW,340,2.0,7.0,39,0.00,,,0.00,VWS V14.01,2013-08-06 02:04:00,
2013-08-05 19:09:00,74.7,49.5,29.98,NNE,13,1.0,7.0,41,0.00,,,0.00,VWS V14.01,2013-08-06 02:09:00,
2013-08-05 19:14:00,74.1,48.9,29.98,NNW,335,1.0,7.0,41,0.00,,,0.00,VWS V14.01,2013-08-06 02:14:00,
2013-08-05 19:19:00,73.4,48.9,29.98,NNW,347,1.0,7.0,42,0.00,,,0.00,VWS V14.01,2013-08-06 02:19:00,
2013-08-05 19:24:00,72.7,50.2,29.98,NNE,26,5.0,7.0,45,0.00,,,0.00,VWS V14.01,2013-08-06 02:24:00,
2013-08-05 19:29:00,71.7,50.4,29.98,ENE,71,1.0,3.0,47,0.00,,,0.00,VWS V14.01,2013-08-06 02:29:00,
2013-08-05 19:34:00,71.1,50.4,29.99,WSW,257,2.0,3.0,48,0.00,,,0.00,VWS V14.01,2013-08-06 02:34:00,
2013-08-05 19:39:00,70.4,50.3,29.99,WNW,292,2.0,5.0,49,0.00,,,0.00,VWS V14.01,2013-08-06 02:39:00,
2013-08-05 19:44:00,69.5,50.6,29.99,WNW,301,3.0,8.0,51,0.00,,,0.00,VWS V14.01,2013-08-06 02:44:00,
2013-08-05 19:49:00,68.8,50.5,29.99,NNW,338,1.0,8.0,52,0.00,,,0.00,VWS V14.01,2013-08-06 02:49:00,
2013-08-05 19:55:00,68.2,50.9,29.99,SSW,205,1.0,8.0,54,0.00,,,0.00,VWS V14.01,2013-08-06 02:55:00,
2013-08-05 20:00:00,67.6,50.9,29.99,West,278,1.0,4.0,55,0.00,,,0.00,VWS V14.01,2013-08-06 03:00:00,
2013-08-05 20:05:00,67.1,50.9,29.99,NNW,338,0.0,4.0,56,0.00,,,0.00,VWS V14.01,2013-08-06 03:05:00,
2013-08-05 20:10:00,66.3,50.6,30.00,WSW,242,2.0,8.0,57,0.00,,,0.00,VWS V14.01,2013-08-06 03:10:00,
2013-08-05 20:15:00,65.4,50.7,30.00,NNW,337,1.0,9.0,59,0.00,,,0.00,VWS V14.01,2013-08-06 03:15:00,
2013-08-05 20:20:00,64.8,50.6,30.00,WNW,298,3.0,9.0,60,0.00,,,0.00,VWS V14.01,2013-08-06 03:20:00,
2013-08-05 20:25:00,63.8,50.5,30.00,North,4,2.0,9.0,62,0.00,,,0.00,VWS V14.01,2013-08-06 03:25:00,
2013-08-05 20:30:00,63.0,50.7,30.00,NNE,18,2.0,7.0,64,0.00,,,0.00,VWS V14.01,2013-08-06 03:30:00,
2013-08-05 20:35:00,62.2,51.1,30.00,West,263,7.0,7.0,67,0.00,,,0.00,VWS V14.01,2013-08-06 03:35:00,
2013-08-05 20:40:00,61.6,51.0,30.00,NNE,27,0.0,7.0,68,0.00,,,0.00,VWS V14.01,2013-08-06 03:40:00,
2013-08-05 20:45:00,61.3,50.7,30.01,NNE,26,1.0,7.0,68,0.00,,,0.00,VWS V14.01,2013-08-06 03:45:00,
2013-08-05 20:50:00,61.0,50.4,30.01,North,11,1.0,7.0,68,0.00,,,0.00,VWS V14.01,2013-08-06 03:50:00,
2013-08-05 20:56:00,60.8,50.2,30.01,NNE,25,1.0,7.0,68,0.00,,,0.00,VWS V14.01,2013-08-06 03:56:00,
2013-08-05 21:01:00,60.7,50.5,30.01,NE,44,1.0,5.0,69,0.00,,,0.00,VWS V14.01,2013-08-06 04:01:00,
2013-08-05 21:06:00,60.5,50.3,30.02,NE,50,1.0,8.0,69,0.00,,,0.00,VWS V14.01,2013-08-06 04:06:00,
2013-08-05 21:11:00,60.2,50.0,30.02,NE,39,0.0,8.0,69,0.00,,,0.00,VWS V14.01,2013-08-06 04:11:00,
2013-08-05 21:16:00,60.1,50.3,30.02,WNW,293,0.0,8.0,70,0.00,,,0.00,VWS V14.01,2013-08-06 04:16:00,
2013-08-05 21:21:00,59.7,50.3,30.02,North,360,2.0,8.0,71,0.00,,,0.00,VWS V14.01,2013-08-06 04:21:00,
2013-08-05 21:26:00,59.3,50.3,30.02,North,351,1.0,8.0,72,0.00,,,0.00,VWS V14.01,2013-08-06 04:26:00,
2013-08-05 21:31:00,58.9,50.3,30.03,NNW,347,0.0,3.0,73,0.00,,,0.00,VWS V14.01,2013-08-06 04:31:00,
2013-08-05 21:36:00,58.4,50.2,30.03,NW,318,1.0,4.0,74,0.00,,,0.00,VWS V14.01,2013-08-06 04:36:00,
2013-08-05 21:41:00,58.0,50.1,30.03,SE,134,0.0,6.0,75,0.00,,,0.00,VWS V14.01,2013-08-06 04:41:00,
2013-08-05 21:46:00,57.7,49.8,30.03,West,273,1.0,6.0,75,0.00,,,0.00,VWS V14.01,2013-08-06 04:46:00,
2013-08-05 21:51:00,57.3,49.8,30.03,NE,35,0.0,6.0,76,0.00,,,0.00,VWS V14.01,2013-08-06 04:51:00,
2013-08-05 21:56:00,56.9,49.8,30.03,NNE,26,0.0,6.0,77,0.00,,,0.00,VWS V14.01,2013-08-06 04:56:00,
2013-08-05 22:01:00,56.5,49.7,30.03,NE,52,0.0,1.0,78,0.00,,,0.00,VWS V14.01,2013-08-06 05:01:00,
2013-08-05 22:06:00,56.1,49.7,30.03,ENE,72,1.0,3.0,79,0.00,,,0.00,VWS V14.01,2013-08-06 05:06:00,
2013-08-05 22:11:00,55.7,50.0,30.03,NNE,18,1.0,4.0,81,0.00,,,0.00,VWS V14.01,2013-08-06 05:11:00,
2013-08-05 22:16:00,55.4,49.7,30.03,NE,37,0.0,4.0,81,0.00,,,0.00,VWS V14.01,2013-08-06 05:16:00,
2013-08-05 22:21:00,55.1,49.7,30.03,NE,46,0.0,4.0,82,0.00,,,0.00,VWS V14.01,2013-08-06 05:21:00,
2013-08-05 22:26:00,54.9,49.8,30.03,NNE,30,0.0,4.0,83,0.00,,,0.00,VWS V14.01,2013-08-06 05:26:00,
2013-08-05 22:31:00,54.8,49.7,30.03,NNE,22,0.0,1.0,83,0.00,,,0.00,VWS V14.01,2013-08-06 05:31:00,
2013-08-05 22:36:00,54.7,50.0,30.04,ESE,105,0.0,2.0,84,0.00,,,0.00,VWS V14.01,2013-08-06 05:36:00,
2013-08-05 22:41:00,54.6,49.9,30.03,SE,124,1.0,3.0,84,0.00,,,0.00,VWS V14.01,2013-08-06 05:41:00,
2013-08-05 22:46:00,54.6,49.9,30.03,ENE,60,1.0,5.0,84,0.00,,,0.00,VWS V14.01,2013-08-06 05:46:00,
2013-08-05 22:51:00,54.8,50.1,30.04,NW,311,0.0,6.0,84,0.00,,,0.00,VWS V14.01,2013-08-06 05:51:00,
2013-08-05 22:56:00,54.8,50.1,30.04,NNE,22,0.0,6.0,84,0.00,,,0.00,VWS V14.01,2013-08-06 05:56:00,
2013-08-05 23:01:00,54.7,50.0,30.04,NW,323,2.0,3.0,84,0.00,,,0.00,VWS V14.01,2013-08-06 06:01:00,
2013-08-05 23:06:00,54.7,50.0,30.03,ENE,78,0.0,4.0,84,0.00,,,0.00,VWS V14.01,2013-08-06 06:06:00,
2013-08-05 23:11:00,54.6,49.9,30.03,North,8,0.0,4.0,84,0.00,,,0.00,VWS V14.01,2013-08-06 06:11:00,
2013-08-05 23:16:00,54.5,50.1,30.03,North,8,1.0,4.0,85,0.00,,,0.00,VWS V14.01,2013-08-06 06:16:00,
2013-08-05 23:21:00,54.4,50.0,30.03,WNW,303,0.0,4.0,85,0.00,,,0.00,VWS V14.01,2013-08-06 06:21:00,
2013-08-05 23:26:00,54.4,50.0,30.04,NE,34,2.0,4.0,85,0.00,,,0.00,VWS V14.01,2013-08-06 06:26:00,
2013-08-05 23:31:00,54.3,49.9,30.04,NW,308,1.0,1.0,85,0.00,,,0.00,VWS V14.01,2013-08-06 06:31:00,
2013-08-05 23:36:00,54.2,49.8,30.04,North,357,1.0,4.0,85,0.00,,,0.00,VWS V14.01,2013-08-06 06:36:00,
2013-08-05 23:41:00,54.1,50.0,30.04,NNE,12,1.0,6.0,86,0.00,,,0.00,VWS V14.01,2013-08-06 06:41:00,
2013-08-05 23:46:00,54.1,50.0,30.04,WNW,293,0.0,6.0,86,0.00,,,0.00,VWS V14.01,2013-08-06 06:46:00,
2013-08-05 23:51:00,54.0,49.9,30.04,NW,323,2.0,6.0,86,0.00,,,0.00,VWS V14.01,2013-08-06 06:51:00,
2013-08-05 23:56:00,53.9,49.8,30.04,North,358,1.0,6.0,86,0.00,,,0.00,VWS V14.01,2013-08-06 06:56:00,